createdAt,value
2023-11-24T00:04:55.802Z,8.3
2023-11-24T00:10:03.204Z,8.3
2023-11-24T00:15:09.575Z,8.3
2023-11-24T00:20:16.048Z,8.2
2023-11-24T00:25:22.370Z,8.1
2023-11-24T00:30:18.849Z,8.0
2023-11-24T00:35:35.261Z,8.0
2023-11-24T00:41:53.828Z,7.9
2023-11-24T00:45:48.056Z,7.9
2023-11-24T00:50:54.425Z,7.8
2023-11-24T00:56:00.880Z,7.7
2023-11-24T01:01:06.214Z,7.6
2023-11-24T01:06:13.656Z,7.6
2023-11-24T01:11:20.025Z,7.5
2023-11-24T01:16:26.434Z,7.4
2023-11-24T01:26:43.326Z,7.3
2023-11-24T01:31:50.746Z,7.2
2023-11-24T01:36:47.161Z,7.1
2023-11-24T01:42:23.628Z,7.1
2023-11-24T01:47:09.986Z,7.0
2023-11-24T01:52:16.341Z,6.9
2023-11-24T01:57:42.783Z,6.9
2023-11-24T02:02:29.230Z,6.8
2023-11-24T02:07:59.529Z,6.8
2023-11-24T02:12:42.044Z,6.7
2023-11-24T02:17:48.744Z,6.7
2023-11-24T02:22:57.892Z,6.6
2023-11-24T02:28:01.307Z,6.6
2023-11-24T02:33:43.874Z,6.5
2023-11-24T02:38:50.112Z,6.5
2023-11-24T02:43:56.546Z,6.5
2023-11-24T02:49:59.072Z,6.5
2023-11-24T02:54:09.334Z,6.4
2023-11-24T03:04:23.367Z,6.4
2023-11-24T03:09:29.794Z,6.4
2023-11-24T03:14:37.675Z,6.3
2023-11-24T03:19:34.065Z,6.3
2023-11-24T03:25:14.562Z,6.3
2023-11-24T03:29:56.890Z,6.3
2023-11-24T03:35:03.210Z,6.3
2023-11-24T03:40:09.596Z,6.3
2023-11-24T03:45:15.980Z,6.3
2023-11-24T03:50:21.338Z,6.2
2023-11-24T03:55:28.722Z,6.2
2023-11-24T04:05:35.702Z,6.2
2023-11-24T04:10:54.438Z,6.2
2023-11-24T04:15:59.541Z,6.1
2023-11-24T04:21:05.862Z,6.1
2023-11-24T04:26:12.219Z,6.1
2023-11-24T04:36:24.959Z,6.0
2023-11-24T04:46:36.787Z,6.0
2023-11-24T05:02:10.597Z,6.0
2023-11-24T05:12:23.379Z,6.1
2023-11-24T05:17:29.792Z,6.1
2023-11-24T05:22:26.128Z,6.0
2023-11-24T05:27:42.605Z,6.0
2023-11-24T05:32:48.999Z,5.9
2023-11-24T05:37:55.264Z,5.9
2023-11-24T05:43:05.766Z,5.8
2023-11-24T05:48:08.075Z,5.8
2023-11-24T05:53:48.500Z,5.7
2023-11-24T05:58:55.864Z,5.7
2023-11-24T06:04:02.401Z,5.7
2023-11-24T06:09:08.635Z,5.7
2023-11-24T06:14:15.027Z,5.6
2023-11-24T06:24:27.780Z,5.6
2023-11-24T06:29:34.173Z,5.6
2023-11-24T06:34:40.614Z,5.6
2023-11-24T06:40:11.007Z,5.6
2023-11-24T06:44:53.349Z,5.6
2023-11-24T06:49:59.757Z,5.6
2023-11-24T06:54:56.128Z,5.5
2023-11-24T07:05:20.425Z,5.5
2023-11-24T07:15:33.305Z,5.4
2023-11-24T07:20:39.540Z,5.4
2023-11-24T07:25:45.916Z,5.4
2023-11-24T07:30:52.345Z,5.4
2023-11-24T07:35:58.689Z,5.4
2023-11-24T07:41:05.041Z,5.4
2023-11-24T07:46:11.473Z,5.4
2023-11-24T07:51:17.802Z,5.4
2023-11-24T07:56:24.157Z,5.4
2023-11-24T08:06:37.012Z,5.5
2023-11-24T08:11:43.324Z,5.5
2023-11-24T08:16:49.727Z,5.5
2023-11-24T08:21:56.092Z,5.6
2023-11-24T08:27:02.474Z,5.6
2023-11-24T08:32:08.819Z,5.6
2023-11-24T08:37:05.205Z,5.6
2023-11-24T08:42:21.552Z,5.6
2023-11-24T08:47:27.962Z,5.6
2023-11-24T08:52:34.329Z,5.6
2023-11-24T08:57:44.688Z,5.6
2023-11-24T09:02:47.117Z,5.6
2023-11-24T09:07:53.450Z,5.6
2023-11-24T09:13:19.868Z,5.6
2023-11-24T09:18:06.213Z,5.7
2023-11-24T09:23:12.591Z,5.6
2023-11-24T09:28:18.991Z,5.6
2023-11-24T09:33:25.319Z,5.7
2023-11-24T09:38:31.717Z,5.7
2023-11-24T09:43:28.027Z,5.7
2023-11-24T09:48:44.549Z,5.8
2023-11-24T09:53:50.840Z,5.8
2023-11-24T10:04:03.652Z,6.0
2023-11-24T10:09:10.208Z,6.1
2023-11-24T10:14:16.566Z,6.1
2023-11-24T10:19:23.503Z,6.2
2023-11-24T10:24:29.332Z,6.3
2023-11-24T10:29:35.692Z,6.4
2023-11-24T10:34:42.163Z,6.5
2023-11-24T10:39:38.445Z,6.6
2023-11-24T10:45:00.434Z,6.7
2023-11-24T10:50:02.887Z,6.7
2023-11-24T10:55:09.371Z,6.7
2023-11-24T11:00:15.719Z,6.8
2023-11-24T11:05:21.938Z,6.8
2023-11-24T11:10:28.368Z,6.9
2023-11-24T11:15:35.869Z,7.0
2023-11-24T11:20:42.552Z,7.2
2023-11-24T11:25:48.828Z,7.5
2023-11-24T11:30:55.057Z,7.7
2023-11-24T11:36:35.480Z,8.0
2023-11-24T11:41:43.134Z,8.0
2023-11-24T11:46:51.529Z,8.2
2023-11-24T11:52:17.916Z,8.5
2023-11-24T11:57:04.446Z,8.9
2023-11-24T12:02:10.924Z,9.1
2023-11-24T12:07:40.479Z,9.3
2023-11-24T12:12:23.642Z,9.3
2023-11-24T12:17:30.005Z,9.2
2023-11-24T12:22:26.417Z,9.0
2023-11-24T12:27:42.947Z,8.9
2023-11-24T12:32:49.391Z,8.8
2023-11-24T12:37:54.699Z,8.6
2023-11-24T12:43:06.234Z,8.6
2023-11-24T12:47:58.564Z,8.4
2023-11-24T12:53:14.922Z,8.2
2023-11-24T12:58:21.504Z,8.0
2023-11-24T13:03:27.730Z,7.9
2023-11-24T13:08:24.097Z,7.7
2023-11-24T13:13:40.521Z,7.5
2023-11-24T13:18:46.918Z,7.4
2023-11-24T13:23:53.370Z,7.3
2023-11-24T13:28:59.675Z,7.3
2023-11-24T13:34:06.100Z,7.3
2023-11-24T13:39:12.401Z,7.4
2023-11-24T13:54:21.532Z,7.8
2023-11-24T13:59:57.995Z,7.8
2023-11-24T14:04:43.373Z,7.8
2023-11-24T14:09:50.675Z,7.7
2023-11-24T14:14:57.062Z,7.6
2023-11-24T14:20:03.435Z,7.5
2023-11-24T14:24:59.829Z,7.4
2023-11-24T14:30:16.172Z,7.3
2023-11-24T14:35:26.155Z,7.1
2023-11-24T14:40:32.574Z,7.0
2023-11-24T14:45:29.023Z,6.8
2023-11-24T14:50:35.422Z,6.7
2023-11-24T14:55:51.802Z,6.5
2023-11-24T15:01:49.358Z,6.3
2023-11-24T15:06:11.619Z,6.2
2023-11-24T15:11:13.954Z,6.1
2023-11-24T15:16:24.371Z,6.0
2023-11-24T15:21:26.718Z,5.9
2023-11-24T15:27:08.135Z,5.7
2023-11-24T15:32:05.629Z,5.7
2023-11-24T15:37:43.147Z,5.6
2023-11-24T15:42:19.654Z,5.5
2023-11-24T15:47:39.180Z,5.4
2023-11-24T15:52:42.440Z,5.4
2023-11-24T15:57:48.847Z,5.3
2023-11-24T16:02:55.338Z,5.2
2023-11-24T16:13:32.215Z,5.1
2023-11-24T16:23:26.574Z,4.9
2023-11-24T16:28:29.002Z,4.8
2023-11-24T16:38:46.444Z,4.7
2023-11-24T16:49:36.397Z,4.4
2023-11-24T16:54:33.643Z,4.4
2023-11-24T17:00:10.100Z,4.4
2023-11-24T17:04:56.438Z,4.3
2023-11-24T17:10:30.894Z,4.3
2023-11-24T17:20:44.598Z,4.1
2023-11-24T17:25:35.017Z,4.1
2023-11-24T17:35:45.643Z,4.0
2023-11-24T17:41:10.708Z,4.0
2023-11-24T17:47:13.229Z,4.0
2023-11-24T17:50:59.431Z,4.0
2023-11-24T18:01:47.389Z,3.9
2023-11-24T18:06:57.707Z,3.9
2023-11-24T18:12:00.023Z,3.9
2023-11-24T18:17:48.070Z,3.9
2023-11-24T18:22:16.478Z,3.9
2023-11-24T18:27:26.512Z,3.9
2023-11-24T18:32:36.947Z,3.8
2023-11-24T18:38:03.369Z,3.8
2023-11-24T18:43:30.397Z,3.7
2023-11-24T18:48:27.970Z,3.8
2023-11-24T18:53:34.263Z,3.7
2023-11-24T19:04:25.378Z,3.5
2023-11-24T19:15:17.215Z,3.4
2023-11-24T19:20:24.635Z,3.3
2023-11-24T19:25:31.041Z,3.3
2023-11-24T19:30:27.349Z,3.2
2023-11-24T19:35:43.735Z,3.2
2023-11-24T19:40:50.152Z,3.1
2023-11-24T19:45:58.000Z,3.1
2023-11-24T19:51:04.321Z,3.0
2023-11-24T19:56:34.776Z,3.1
2023-11-24T20:06:13.436Z,3.1
2023-11-24T20:11:29.874Z,3.1
2023-11-24T20:16:36.367Z,3.1
2023-11-24T20:21:42.666Z,3.1
2023-11-24T20:26:49.006Z,3.1
2023-11-24T20:48:53.147Z,3.6
2023-11-24T20:54:00.601Z,3.6
2023-11-24T20:58:56.955Z,3.6
2023-11-24T21:04:13.540Z,3.5
2023-11-24T21:14:26.155Z,3.4
2023-11-24T21:19:32.608Z,3.3
2023-11-24T21:24:39.047Z,3.2
2023-11-24T21:29:45.452Z,3.2
2023-11-24T21:34:51.871Z,3.2
2023-11-24T21:39:48.202Z,3.1
2023-11-24T21:45:04.669Z,3.1
2023-11-24T21:50:11.101Z,3.0
2023-11-24T21:56:04.489Z,2.9
2023-11-24T22:01:12.115Z,2.9
2023-11-24T22:06:38.505Z,2.8
2023-11-24T22:11:24.850Z,2.7
2023-11-24T22:16:35.322Z,2.7
2023-11-24T22:21:37.673Z,2.6
2023-11-24T22:26:44.183Z,2.6
2023-11-24T22:31:50.581Z,2.5
2023-11-24T22:42:27.528Z,2.4
2023-11-24T22:47:10.069Z,2.4
2023-11-24T22:52:16.352Z,2.4
2023-11-24T22:57:22.681Z,2.3
2023-11-24T23:06:09.281Z,2.3
2023-11-24T23:11:37.302Z,2.3
2023-11-24T23:16:43.704Z,2.4
2023-11-24T23:21:27.053Z,2.4
2023-11-24T23:26:33.413Z,2.3
2023-11-24T23:33:06.564Z,2.2
2023-11-24T23:36:46.237Z,2.2
2023-11-24T23:42:12.232Z,2.1
2023-11-24T23:46:59.773Z,2.1
2023-11-24T23:52:30.049Z,2.1
2023-11-24T23:57:32.377Z,2.0
